createdAt,value
2022-10-04T00:00:25.848Z,4.77
2022-10-04T00:00:57.910Z,4.77
2022-10-04T00:01:29.314Z,4.77
2022-10-04T00:02:01.417Z,4.77
2022-10-04T00:02:33.278Z,4.77
2022-10-04T00:03:05.630Z,4.77
2022-10-04T00:03:37.087Z,4.77
2022-10-04T00:04:09.108Z,4.77
2022-10-04T00:04:41.056Z,4.77
2022-10-04T00:05:13.061Z,4.77
2022-10-04T00:05:45.433Z,4.77
2022-10-04T00:06:01.383Z,4.77
2022-10-04T00:06:32.918Z,4.77
2022-10-04T00:06:49.031Z,4.88
2022-10-04T00:07:20.791Z,4.88
2022-10-04T00:07:52.911Z,4.88
2022-10-04T00:08:25.092Z,4.88
2022-10-04T00:08:56.834Z,4.88
2022-10-04T00:09:28.637Z,4.88
2022-10-04T00:10:01.069Z,4.88
2022-10-04T00:10:16.796Z,4.88
2022-10-04T00:10:48.886Z,5.00
2022-10-04T00:11:32.760Z,5.00
2022-10-04T00:12:05.019Z,5.00
2022-10-04T00:12:36.588Z,5.00
2022-10-04T00:13:08.657Z,5.11
2022-10-04T00:13:40.645Z,5.11
2022-10-04T00:14:12.597Z,5.11
2022-10-04T00:14:44.910Z,5.11
2022-10-04T00:15:17.543Z,5.11
2022-10-04T00:15:48.628Z,5.22
2022-10-04T00:16:20.392Z,5.22
2022-10-04T00:16:52.396Z,5.22
2022-10-04T00:17:24.734Z,5.22
2022-10-04T00:17:56.439Z,5.22
2022-10-04T00:18:28.317Z,5.22
2022-10-04T00:19:00.341Z,5.22
2022-10-04T00:19:32.610Z,5.22
2022-10-04T00:20:05.160Z,5.22
2022-10-04T00:20:36.313Z,5.22
2022-10-04T00:21:08.269Z,5.22
2022-10-04T00:21:40.321Z,5.27
2022-10-04T00:22:12.388Z,5.38
2022-10-04T00:22:44.237Z,5.38
2022-10-04T00:23:00.321Z,5.38
2022-10-04T00:23:32.018Z,5.38
2022-10-04T00:23:48.289Z,5.38
2022-10-04T00:24:20.175Z,5.38
2022-10-04T00:24:52.037Z,5.38
2022-10-04T00:25:24.663Z,5.38
2022-10-04T00:25:56.144Z,5.38
2022-10-04T00:26:28.044Z,5.38
2022-10-04T00:27:00.006Z,5.38
2022-10-04T00:27:16.134Z,5.38
2022-10-04T00:27:48.065Z,5.38
2022-10-04T00:28:32.055Z,5.38
2022-10-04T00:29:04.817Z,5.27
2022-10-04T00:29:35.888Z,5.27
2022-10-04T00:30:08.941Z,5.27
2022-10-04T00:30:40.042Z,5.27
2022-10-04T00:31:12.001Z,5.27
2022-10-04T00:31:44.348Z,5.27
2022-10-04T00:32:00.006Z,5.27
2022-10-04T00:32:43.794Z,5.27
2022-10-04T00:33:16.114Z,5.27
2022-10-04T00:33:47.938Z,5.27
2022-10-04T00:34:19.642Z,5.27
2022-10-04T00:34:51.796Z,5.27
2022-10-04T00:35:24.003Z,5.27
2022-10-04T00:35:55.765Z,5.27
2022-10-04T00:36:27.573Z,5.27
2022-10-04T00:36:59.644Z,5.27
2022-10-04T00:37:16.094Z,5.27
2022-10-04T00:37:59.640Z,5.27
2022-10-04T00:38:31.516Z,5.27
2022-10-04T00:39:04.162Z,5.27
2022-10-04T00:39:35.646Z,5.27
2022-10-04T00:40:07.708Z,5.27
2022-10-04T00:40:39.578Z,5.27
2022-10-04T00:41:11.431Z,5.27
2022-10-04T00:41:43.668Z,5.27
2022-10-04T00:42:15.666Z,5.27
2022-10-04T00:42:47.493Z,5.27
2022-10-04T00:43:19.234Z,5.27
2022-10-04T00:43:51.416Z,5.27
2022-10-04T00:44:23.320Z,5.27
2022-10-04T00:44:55.499Z,5.27
2022-10-04T00:45:27.600Z,5.38
2022-10-04T00:45:59.292Z,5.38
2022-10-04T00:46:31.394Z,5.38
2022-10-04T00:47:04.191Z,5.38
2022-10-04T00:47:35.355Z,5.38
2022-10-04T00:48:07.081Z,5.38
2022-10-04T00:48:39.225Z,5.38
2022-10-04T00:49:11.138Z,5.38
2022-10-04T00:49:43.160Z,5.38
2022-10-04T00:49:59.171Z,5.50
2022-10-04T00:50:43.530Z,5.50
2022-10-04T00:51:15.395Z,5.50
2022-10-04T00:51:47.068Z,5.50
2022-10-04T00:52:19.004Z,5.50
2022-10-04T00:52:50.954Z,5.50
2022-10-04T00:53:23.180Z,5.50
2022-10-04T00:53:55.532Z,5.50
2022-10-04T00:54:26.898Z,5.38
2022-10-04T00:54:58.894Z,5.38
2022-10-04T00:55:31.192Z,5.38
2022-10-04T00:56:03.949Z,5.50
2022-10-04T00:56:34.835Z,5.50
2022-10-04T00:57:06.782Z,5.50
2022-10-04T00:57:38.797Z,5.50
2022-10-04T00:58:10.618Z,5.50
2022-10-04T00:58:42.790Z,5.50
2022-10-04T00:58:58.902Z,5.50
2022-10-04T00:59:30.678Z,5.50
2022-10-04T00:59:46.724Z,5.50
2022-10-04T01:00:20.889Z,5.50
2022-10-04T01:00:50.617Z,5.50
2022-10-04T01:01:22.771Z,5.50
2022-10-04T01:01:55.228Z,5.50
2022-10-04T01:02:26.821Z,5.50
2022-10-04T01:02:58.592Z,5.50
2022-10-04T01:03:15.000Z,5.50
2022-10-04T01:03:46.469Z,5.50
2022-10-04T01:04:30.542Z,5.50
2022-10-04T01:05:02.923Z,5.50
2022-10-04T01:05:34.504Z,5.50
2022-10-04T01:06:06.444Z,5.50
2022-10-04T01:06:38.238Z,5.50
2022-10-04T01:07:10.392Z,5.50
2022-10-04T01:07:42.255Z,5.50
2022-10-04T01:07:58.476Z,5.50
2022-10-04T01:08:42.424Z,5.50
2022-10-04T01:09:14.767Z,5.61
2022-10-04T01:09:46.350Z,5.61
2022-10-04T01:10:18.554Z,5.61
2022-10-04T01:10:50.160Z,5.61
2022-10-04T01:11:22.406Z,5.61
2022-10-04T01:11:54.659Z,5.61
2022-10-04T01:12:26.010Z,5.61
2022-10-04T01:12:58.352Z,5.61
2022-10-04T01:13:30.176Z,5.72
2022-10-04T01:14:02.475Z,5.72
2022-10-04T01:14:34.385Z,5.72
2022-10-04T01:15:07.441Z,5.72
2022-10-04T01:15:38.199Z,5.72
2022-10-04T01:16:10.139Z,5.72
2022-10-04T01:16:42.082Z,5.72
2022-10-04T01:17:13.986Z,5.72
2022-10-04T01:17:46.042Z,5.77
2022-10-04T01:18:17.950Z,5.77
2022-10-04T01:18:49.817Z,5.77
2022-10-04T01:19:22.061Z,5.77
2022-10-04T01:19:54.461Z,5.72
2022-10-04T01:20:26.195Z,5.72
2022-10-04T01:20:57.927Z,5.72
2022-10-04T01:21:29.950Z,5.77
2022-10-04T01:22:02.226Z,5.77
2022-10-04T01:22:33.877Z,5.77
2022-10-04T01:23:05.935Z,5.88
2022-10-04T01:23:37.673Z,5.88
2022-10-04T01:24:09.882Z,5.88
2022-10-04T01:24:41.492Z,5.77
2022-10-04T01:25:14.276Z,5.77
2022-10-04T01:25:45.798Z,5.77
2022-10-04T01:26:17.695Z,5.72
2022-10-04T01:26:49.456Z,5.72
2022-10-04T01:27:21.639Z,5.72
2022-10-04T01:27:53.525Z,5.72
2022-10-04T01:28:26.081Z,5.72
2022-10-04T01:28:57.503Z,5.72
2022-10-04T01:29:13.550Z,5.72
2022-10-04T01:29:57.441Z,5.72
2022-10-04T01:30:29.872Z,5.72
2022-10-04T01:31:01.793Z,5.72
2022-10-04T01:31:33.358Z,5.72
2022-10-04T01:32:05.705Z,5.72
2022-10-04T01:32:37.377Z,5.72
2022-10-04T01:33:09.379Z,5.72
2022-10-04T01:33:41.120Z,5.72
2022-10-04T01:33:57.346Z,5.72
2022-10-04T01:34:29.125Z,5.72
2022-10-04T01:34:45.525Z,5.72
2022-10-04T01:35:17.389Z,5.72
2022-10-04T01:35:49.197Z,5.72
2022-10-04T01:36:21.207Z,5.72
2022-10-04T01:36:53.183Z,5.77
2022-10-04T01:37:25.583Z,5.77
2022-10-04T01:37:57.072Z,5.77
2022-10-04T01:38:29.053Z,5.77
2022-10-04T01:39:01.037Z,5.77
2022-10-04T01:39:33.067Z,5.77
2022-10-04T01:40:05.715Z,5.77
2022-10-04T01:40:36.964Z,5.77
2022-10-04T01:41:08.993Z,5.88
2022-10-04T01:41:41.211Z,5.88
2022-10-04T01:42:12.820Z,5.88
2022-10-04T01:42:45.111Z,5.88
2022-10-04T01:43:16.871Z,5.88
2022-10-04T01:43:48.997Z,5.88
2022-10-04T01:44:20.591Z,5.88
2022-10-04T01:44:52.874Z,5.88
2022-10-04T01:45:25.446Z,6.00
2022-10-04T01:45:56.914Z,6.00
2022-10-04T01:46:28.833Z,6.00
2022-10-04T01:46:45.003Z,6.00
2022-10-04T01:47:16.756Z,6.00
2022-10-04T01:48:00.717Z,6.00
2022-10-04T01:48:32.821Z,6.00
2022-10-04T01:49:05.458Z,6.00
2022-10-04T01:49:36.605Z,6.00
2022-10-04T01:50:11.446Z,6.00
2022-10-04T01:50:40.760Z,6.11
2022-10-04T01:51:12.492Z,6.11
2022-10-04T01:51:44.658Z,6.11
2022-10-04T01:52:16.487Z,6.11
2022-10-04T01:52:48.607Z,6.11
2022-10-04T01:53:20.300Z,6.11
2022-10-04T01:53:52.499Z,6.11
2022-10-04T01:54:24.770Z,6.00
2022-10-04T01:54:56.395Z,5.88
2022-10-04T01:55:28.599Z,5.88
2022-10-04T01:55:44.609Z,5.88
2022-10-04T01:56:28.339Z,5.88
2022-10-04T01:56:44.701Z,5.77
2022-10-04T01:57:28.470Z,5.88
2022-10-04T01:58:00.350Z,5.88
2022-10-04T01:58:32.252Z,5.88
2022-10-04T01:59:05.004Z,5.88
2022-10-04T01:59:36.261Z,5.88
2022-10-04T02:00:08.682Z,5.88
2022-10-04T02:00:40.120Z,5.88
2022-10-04T02:00:56.654Z,5.88
2022-10-04T02:01:40.377Z,5.88
2022-10-04T02:02:12.171Z,5.88
2022-10-04T02:02:44.249Z,5.88
2022-10-04T02:03:16.126Z,5.88
2022-10-04T02:03:47.964Z,5.88
2022-10-04T02:04:22.545Z,5.88
2022-10-04T02:04:52.185Z,5.88
2022-10-04T02:05:24.526Z,5.88
2022-10-04T02:05:56.057Z,5.88
2022-10-04T02:06:28.008Z,5.88
2022-10-04T02:06:59.987Z,5.77
2022-10-04T02:07:31.762Z,5.77
2022-10-04T02:08:04.815Z,5.77
2022-10-04T02:08:35.856Z,5.77
2022-10-04T02:09:07.997Z,5.77
2022-10-04T02:09:39.815Z,5.77
2022-10-04T02:09:56.284Z,5.77
2022-10-04T02:10:28.003Z,5.77
2022-10-04T02:10:44.039Z,5.77
2022-10-04T02:11:15.976Z,5.72
2022-10-04T02:11:47.559Z,5.72
2022-10-04T02:12:19.779Z,5.72
2022-10-04T02:12:51.790Z,5.72
2022-10-04T02:13:23.711Z,5.72
2022-10-04T02:13:55.795Z,5.72
2022-10-04T02:14:11.618Z,5.72
2022-10-04T02:14:43.841Z,5.72
2022-10-04T02:15:27.942Z,5.72
2022-10-04T02:15:59.728Z,5.72
2022-10-04T02:16:31.542Z,5.72
2022-10-04T02:17:04.106Z,5.72
2022-10-04T02:17:35.619Z,5.61
2022-10-04T02:18:07.526Z,5.61
2022-10-04T02:18:39.295Z,5.61
2022-10-04T02:19:11.358Z,5.61
2022-10-04T02:19:43.388Z,5.61
2022-10-04T02:20:15.730Z,5.61
2022-10-04T02:20:47.248Z,5.61
2022-10-04T02:21:19.285Z,5.61
2022-10-04T02:21:51.211Z,5.61
2022-10-04T02:22:23.391Z,5.61
2022-10-04T02:22:55.596Z,5.61
2022-10-04T02:23:11.285Z,5.61
2022-10-04T02:23:55.648Z,5.61
2022-10-04T02:24:27.299Z,5.61
2022-10-04T02:24:59.234Z,5.61
2022-10-04T02:25:31.457Z,5.61
2022-10-04T02:26:04.030Z,5.72
2022-10-04T02:26:35.477Z,5.72
2022-10-04T02:27:07.276Z,5.72
2022-10-04T02:27:38.984Z,5.72
2022-10-04T02:28:11.195Z,5.72
2022-10-04T02:28:43.111Z,5.72
2022-10-04T02:29:15.520Z,5.72
2022-10-04T02:29:46.969Z,5.61
2022-10-04T02:30:19.368Z,5.61
2022-10-04T02:30:50.880Z,5.61
2022-10-04T02:31:23.176Z,5.61
2022-10-04T02:31:55.283Z,5.61
2022-10-04T02:32:11.013Z,5.61
2022-10-04T02:32:42.920Z,5.72
2022-10-04T02:33:26.851Z,5.72
2022-10-04T02:33:58.883Z,5.72
2022-10-04T02:34:30.653Z,5.72
2022-10-04T02:35:02.970Z,5.72
2022-10-04T02:35:34.916Z,5.72
2022-10-04T02:36:06.774Z,5.77
2022-10-04T02:36:38.534Z,5.77
2022-10-04T02:37:10.768Z,5.77
2022-10-04T02:37:42.686Z,5.77
2022-10-04T02:38:14.770Z,5.77
2022-10-04T02:38:46.454Z,5.77
2022-10-04T02:39:18.508Z,5.72
2022-10-04T02:39:50.422Z,5.72
2022-10-04T02:40:22.853Z,5.72
2022-10-04T02:40:54.709Z,5.72
2022-10-04T02:41:10.534Z,5.72
2022-10-04T02:41:54.909Z,5.61
2022-10-04T02:42:10.553Z,5.61
2022-10-04T02:42:54.640Z,5.61
2022-10-04T02:43:26.461Z,5.61
2022-10-04T02:43:58.326Z,5.61
2022-10-04T02:44:30.258Z,5.61
2022-10-04T02:45:05.708Z,5.61
2022-10-04T02:45:34.681Z,5.61
2022-10-04T02:46:06.267Z,5.61
2022-10-04T02:46:38.441Z,5.61
2022-10-04T02:47:10.224Z,5.61
2022-10-04T02:47:42.204Z,5.61
2022-10-04T02:48:14.298Z,5.61
2022-10-04T02:48:46.146Z,5.61
2022-10-04T02:49:18.080Z,5.61
2022-10-04T02:49:50.118Z,5.61
2022-10-04T02:50:22.269Z,5.72
2022-10-04T02:50:54.006Z,5.72
2022-10-04T02:51:10.231Z,5.72
2022-10-04T02:51:42.101Z,5.72
2022-10-04T02:52:26.176Z,5.77
2022-10-04T02:52:57.863Z,5.77
2022-10-04T02:53:29.894Z,5.77
2022-10-04T02:54:03.620Z,5.77
2022-10-04T02:54:34.502Z,5.77
2022-10-04T02:55:06.274Z,5.72
2022-10-04T02:55:37.920Z,5.72
2022-10-04T02:56:09.922Z,5.61
2022-10-04T02:56:41.860Z,5.61
2022-10-04T02:57:14.046Z,5.61
2022-10-04T02:57:45.958Z,5.61
2022-10-04T02:58:17.844Z,5.61
2022-10-04T02:58:49.859Z,5.61
2022-10-04T02:59:21.830Z,5.61
2022-10-04T02:59:53.903Z,5.61
2022-10-04T03:00:26.470Z,5.61
2022-10-04T03:00:57.872Z,5.72
2022-10-04T03:01:29.655Z,5.72
2022-10-04T03:02:02.067Z,5.72
2022-10-04T03:02:33.920Z,5.72
2022-10-04T03:03:05.967Z,5.72
2022-10-04T03:03:37.551Z,5.72
2022-10-04T03:03:53.753Z,5.72
2022-10-04T03:04:25.744Z,5.61
2022-10-04T03:04:41.487Z,5.61
2022-10-04T03:05:14.003Z,5.61
2022-10-04T03:05:45.430Z,5.61
2022-10-04T03:06:17.361Z,5.50
2022-10-04T03:06:49.414Z,5.50
2022-10-04T03:07:21.385Z,5.50
2022-10-04T03:07:53.392Z,5.50
2022-10-04T03:08:25.620Z,5.50
2022-10-04T03:08:41.452Z,5.50
2022-10-04T03:09:29.608Z,5.38
2022-10-04T03:09:57.258Z,5.38
2022-10-04T03:10:29.479Z,5.38
2022-10-04T03:11:01.417Z,5.38
2022-10-04T03:11:33.225Z,5.38
2022-10-04T03:12:05.791Z,5.27
2022-10-04T03:12:37.139Z,5.27
2022-10-04T03:13:09.128Z,5.27
2022-10-04T03:13:41.236Z,5.27
2022-10-04T03:14:13.226Z,5.27
2022-10-04T03:14:45.167Z,5.27
2022-10-04T03:15:17.719Z,5.27
2022-10-04T03:15:49.050Z,5.27
2022-10-04T03:16:20.987Z,5.27
2022-10-04T03:16:53.034Z,5.27
2022-10-04T03:17:08.974Z,5.27
2022-10-04T03:17:53.019Z,5.27
2022-10-04T03:18:25.357Z,5.27
2022-10-04T03:18:56.716Z,5.27
2022-10-04T03:19:28.872Z,5.27
2022-10-04T03:20:01.246Z,5.27
2022-10-04T03:20:32.855Z,5.27
2022-10-04T03:21:05.562Z,5.27
2022-10-04T03:21:36.686Z,5.27
2022-10-04T03:21:52.945Z,5.27
2022-10-04T03:22:25.028Z,5.27
2022-10-04T03:22:44.831Z,5.22
2022-10-04T03:23:12.737Z,5.22
2022-10-04T03:23:45.033Z,5.22
2022-10-04T03:24:16.648Z,5.11
2022-10-04T03:24:48.594Z,5.11
2022-10-04T03:25:20.894Z,5.11
2022-10-04T03:25:52.623Z,5.11
2022-10-04T03:26:08.719Z,5.22
2022-10-04T03:26:40.469Z,5.22
2022-10-04T03:27:24.867Z,5.22
2022-10-04T03:27:56.730Z,5.22
2022-10-04T03:28:28.703Z,5.27
2022-10-04T03:29:00.436Z,5.27
2022-10-04T03:29:32.689Z,5.27
2022-10-04T03:30:06.727Z,5.27
2022-10-04T03:30:36.330Z,5.38
2022-10-04T03:31:08.710Z,5.38
2022-10-04T03:31:40.587Z,5.38
2022-10-04T03:32:12.428Z,5.38
2022-10-04T03:32:44.472Z,5.38
2022-10-04T03:33:16.319Z,5.38
2022-10-04T03:33:48.305Z,5.38
2022-10-04T03:34:20.319Z,5.27
2022-10-04T03:34:52.285Z,5.27
2022-10-04T03:35:08.673Z,5.27
2022-10-04T03:35:52.327Z,5.27
2022-10-04T03:36:24.322Z,5.27
2022-10-04T03:36:56.236Z,5.27
2022-10-04T03:37:28.050Z,5.27
2022-10-04T03:38:00.125Z,5.22
2022-10-04T03:38:37.242Z,5.22
2022-10-04T03:39:04.787Z,5.22
2022-10-04T03:39:36.113Z,5.22
2022-10-04T03:40:08.447Z,5.22
2022-10-04T03:40:40.012Z,5.22
2022-10-04T03:41:12.030Z,5.22
2022-10-04T03:41:44.204Z,5.11
2022-10-04T03:42:16.512Z,5.11
2022-10-04T03:42:47.939Z,5.11
2022-10-04T03:43:24.302Z,5.11
2022-10-04T03:43:51.829Z,5.11
2022-10-04T03:44:08.020Z,5.11
2022-10-04T03:44:39.787Z,5.11
2022-10-04T03:45:24.503Z,5.11
2022-10-04T03:45:55.922Z,5.11
2022-10-04T03:46:27.675Z,5.11
2022-10-04T03:46:59.832Z,5.00
2022-10-04T03:47:31.856Z,5.00
2022-10-04T03:48:04.886Z,5.00
2022-10-04T03:48:35.934Z,5.00
2022-10-04T03:49:07.726Z,5.00
2022-10-04T03:49:39.621Z,5.00
2022-10-04T03:50:11.975Z,5.00
2022-10-04T03:50:43.607Z,5.00
2022-10-04T03:51:15.931Z,4.88
2022-10-04T03:51:47.566Z,5.00
2022-10-04T03:52:19.607Z,4.88
2022-10-04T03:52:51.409Z,4.88
2022-10-04T03:53:07.608Z,4.88
2022-10-04T03:53:51.404Z,4.88
2022-10-04T03:54:23.518Z,4.88
2022-10-04T03:54:55.508Z,4.88
2022-10-04T03:55:32.456Z,4.88
2022-10-04T03:56:04.080Z,4.88
2022-10-04T03:56:31.392Z,4.88
2022-10-04T03:57:03.352Z,4.88
2022-10-04T03:57:35.492Z,4.88
2022-10-04T03:57:51.318Z,4.88
2022-10-04T03:58:23.231Z,4.88
2022-10-04T03:58:43.870Z,4.88
2022-10-04T03:59:11.291Z,4.88
2022-10-04T03:59:43.027Z,4.88
2022-10-04T04:00:16.842Z,4.88
2022-10-04T04:00:47.153Z,4.88
2022-10-04T04:01:19.321Z,4.88
2022-10-04T04:01:51.017Z,4.88
2022-10-04T04:02:07.295Z,4.88
2022-10-04T04:02:43.714Z,4.88
2022-10-04T04:03:23.138Z,4.88
2022-10-04T04:03:55.491Z,4.88
2022-10-04T04:04:26.916Z,4.88
2022-10-04T04:04:59.067Z,4.88
2022-10-04T04:05:31.376Z,4.88
2022-10-04T04:06:04.213Z,4.77
2022-10-04T04:06:35.224Z,4.77
2022-10-04T04:06:51.009Z,4.77
2022-10-04T04:07:35.186Z,4.77
2022-10-04T04:08:06.790Z,4.88
2022-10-04T04:08:38.959Z,4.88
2022-10-04T04:09:10.719Z,4.88
2022-10-04T04:09:42.657Z,4.88
2022-10-04T04:10:16.885Z,4.88
2022-10-04T04:10:46.762Z,4.88
2022-10-04T04:11:18.663Z,4.88
2022-10-04T04:11:50.709Z,4.88
2022-10-04T04:12:22.776Z,4.88
2022-10-04T04:12:54.811Z,4.77
2022-10-04T04:13:26.580Z,4.77
2022-10-04T04:13:58.631Z,4.77
2022-10-04T04:14:30.564Z,4.77
2022-10-04T04:15:05.832Z,4.77
2022-10-04T04:15:34.683Z,4.77
2022-10-04T04:16:06.597Z,4.77
2022-10-04T04:16:38.804Z,4.77
2022-10-04T04:17:10.534Z,4.77
2022-10-04T04:17:42.391Z,4.77
2022-10-04T04:18:14.726Z,4.77
2022-10-04T04:18:46.402Z,4.77
2022-10-04T04:19:18.379Z,4.77
2022-10-04T04:19:50.307Z,4.77
2022-10-04T04:20:07.709Z,4.77
2022-10-04T04:20:38.182Z,4.72
2022-10-04T04:21:22.434Z,4.72
2022-10-04T04:21:54.529Z,4.72
2022-10-04T04:22:26.233Z,4.72
2022-10-04T04:22:58.098Z,4.72
2022-10-04T04:23:30.289Z,4.72
2022-10-04T04:24:02.945Z,4.72
2022-10-04T04:24:34.117Z,4.72
2022-10-04T04:24:50.263Z,4.72
2022-10-04T04:25:34.633Z,4.72
2022-10-04T04:26:06.384Z,4.72
2022-10-04T04:26:38.355Z,4.72
2022-10-04T04:27:09.954Z,4.72
2022-10-04T04:27:41.970Z,4.72
2022-10-04T04:28:14.642Z,4.72
2022-10-04T04:28:46.146Z,4.72
2022-10-04T04:29:17.903Z,4.72
2022-10-04T04:29:49.910Z,4.72
2022-10-04T04:30:22.338Z,4.72
2022-10-04T04:30:54.284Z,4.72
2022-10-04T04:31:26.016Z,4.72
2022-10-04T04:31:57.853Z,4.72
2022-10-04T04:32:29.919Z,4.72
2022-10-04T04:33:02.226Z,4.72
2022-10-04T04:33:33.662Z,4.72
2022-10-04T04:33:49.870Z,4.72
2022-10-04T04:34:21.646Z,4.72
2022-10-04T04:34:37.804Z,4.72
2022-10-04T04:35:10.027Z,4.72
2022-10-04T04:35:41.738Z,4.72
2022-10-04T04:36:13.954Z,4.72
2022-10-04T04:36:45.818Z,4.72
2022-10-04T04:37:17.644Z,4.72
2022-10-04T04:37:49.550Z,4.72
2022-10-04T04:38:21.558Z,4.72
2022-10-04T04:38:53.808Z,4.72
2022-10-04T04:39:25.732Z,4.72
2022-10-04T04:39:57.363Z,4.72
2022-10-04T04:40:29.753Z,4.72
2022-10-04T04:41:01.638Z,4.72
2022-10-04T04:41:33.614Z,4.61
2022-10-04T04:42:06.102Z,4.61
2022-10-04T04:42:37.272Z,4.61
2022-10-04T04:43:09.535Z,4.61
2022-10-04T04:43:41.464Z,4.61
2022-10-04T04:44:13.304Z,4.61
2022-10-04T04:44:45.644Z,4.61
2022-10-04T04:45:18.550Z,4.61
2022-10-04T04:46:02.865Z,4.61
2022-10-04T04:46:27.724Z,4.72
2022-10-04T04:46:37.372Z,4.72
2022-10-04T04:47:09.453Z,4.72
2022-10-04T04:47:53.178Z,4.72
2022-10-04T04:48:25.357Z,4.61
2022-10-04T04:48:57.088Z,4.61
2022-10-04T04:49:29.155Z,4.50
2022-10-04T04:50:01.709Z,4.50
2022-10-04T04:50:33.175Z,4.50
2022-10-04T04:51:05.584Z,4.50
2022-10-04T04:51:21.172Z,4.50
2022-10-04T04:52:05.719Z,4.38
2022-10-04T04:52:37.030Z,4.38
2022-10-04T04:53:09.182Z,4.38
2022-10-04T04:53:40.880Z,4.38
2022-10-04T04:54:12.886Z,4.38
2022-10-04T04:54:45.529Z,4.27
2022-10-04T04:55:17.263Z,4.27
2022-10-04T04:56:02.936Z,4.27
2022-10-04T04:56:11.057Z,4.27
2022-10-04T04:56:36.776Z,4.27
2022-10-04T04:57:20.774Z,4.27
2022-10-04T04:57:52.886Z,4.27
2022-10-04T04:58:24.906Z,4.38
2022-10-04T04:58:56.699Z,4.38
2022-10-04T04:59:28.821Z,4.38
2022-10-04T05:00:01.837Z,4.38
2022-10-04T05:00:32.610Z,4.38
2022-10-04T05:01:05.101Z,4.38
2022-10-04T05:01:39.116Z,4.50
2022-10-04T05:02:08.810Z,4.50
2022-10-04T05:02:40.541Z,4.50
2022-10-04T05:03:12.543Z,4.50
2022-10-04T05:03:45.040Z,4.50
2022-10-04T05:04:16.568Z,4.50
2022-10-04T05:04:48.444Z,4.50
2022-10-04T05:05:05.265Z,4.50
2022-10-04T05:05:48.611Z,4.38
2022-10-04T05:06:20.644Z,4.38
2022-10-04T05:06:52.612Z,4.38
2022-10-04T05:07:24.811Z,4.38
2022-10-04T05:07:56.322Z,4.38
2022-10-04T05:08:28.336Z,4.38
2022-10-04T05:09:00.441Z,4.38
2022-10-04T05:09:32.299Z,4.38
2022-10-04T05:09:48.457Z,4.38
2022-10-04T05:10:20.434Z,4.38
2022-10-04T05:10:36.294Z,4.38
2022-10-04T05:11:08.352Z,4.38
2022-10-04T05:11:40.284Z,4.38
2022-10-04T05:12:12.300Z,4.38
2022-10-04T05:12:44.826Z,4.27
2022-10-04T05:13:16.287Z,4.27
2022-10-04T05:13:48.049Z,4.27
2022-10-04T05:14:05.049Z,4.27
2022-10-04T05:14:36.056Z,4.27
2022-10-04T05:15:20.469Z,4.27
2022-10-04T05:15:52.066Z,4.27
2022-10-04T05:16:24.248Z,4.27
2022-10-04T05:16:56.106Z,4.27
2022-10-04T05:17:27.895Z,4.27
2022-10-04T05:18:00.112Z,4.27
2022-10-04T05:18:31.861Z,4.38
2022-10-04T05:18:48.041Z,4.38
2022-10-04T05:19:31.903Z,4.38
2022-10-04T05:20:05.410Z,4.27
2022-10-04T05:20:35.964Z,4.27
2022-10-04T05:21:07.867Z,4.27
2022-10-04T05:21:42.866Z,4.27
2022-10-04T05:22:11.894Z,4.27
2022-10-04T05:22:43.692Z,4.27
2022-10-04T05:23:16.135Z,4.27
2022-10-04T05:23:47.793Z,4.27
2022-10-04T05:24:19.660Z,4.27
2022-10-04T05:24:51.569Z,4.27
2022-10-04T05:25:24.377Z,4.27
2022-10-04T05:25:55.759Z,4.27
2022-10-04T05:26:27.569Z,4.27
2022-10-04T05:26:59.722Z,4.27
2022-10-04T05:27:31.410Z,4.38
2022-10-04T05:28:04.525Z,4.38
2022-10-04T05:28:35.864Z,4.38
2022-10-04T05:29:07.323Z,4.38
2022-10-04T05:29:39.497Z,4.38
2022-10-04T05:30:12.817Z,4.38
2022-10-04T05:30:43.411Z,4.38
2022-10-04T05:31:15.890Z,4.38
2022-10-04T05:31:47.525Z,4.38
2022-10-04T05:32:05.008Z,4.27
2022-10-04T05:32:35.612Z,4.27
2022-10-04T05:33:19.567Z,4.27
2022-10-04T05:33:51.318Z,4.27
2022-10-04T05:34:23.455Z,4.27
2022-10-04T05:34:55.574Z,4.27
2022-10-04T05:35:27.660Z,4.38
2022-10-04T05:35:59.213Z,4.38
2022-10-04T05:36:31.350Z,4.38
2022-10-04T05:36:47.477Z,4.38
2022-10-04T05:37:31.313Z,4.38
2022-10-04T05:38:04.594Z,4.38
2022-10-04T05:38:35.449Z,4.38
2022-10-04T05:39:07.284Z,4.38
2022-10-04T05:39:39.404Z,4.50
2022-10-04T05:40:11.519Z,4.50
2022-10-04T05:40:43.125Z,4.50
2022-10-04T05:41:15.596Z,4.61
2022-10-04T05:41:47.545Z,4.61
2022-10-04T05:42:19.528Z,4.61
2022-10-04T05:42:51.014Z,4.50
2022-10-04T05:43:22.969Z,4.50
2022-10-04T05:43:55.343Z,4.50
2022-10-04T05:44:27.140Z,4.50
2022-10-04T05:44:58.894Z,4.50
2022-10-04T05:45:31.395Z,4.50
2022-10-04T05:46:03.859Z,4.50
2022-10-04T05:46:35.275Z,4.50
2022-10-04T05:47:06.787Z,4.50
2022-10-04T05:47:38.900Z,4.50
2022-10-04T05:48:10.818Z,4.50
2022-10-04T05:48:42.936Z,4.50
2022-10-04T05:49:19.124Z,4.50
2022-10-04T05:49:46.716Z,4.50
2022-10-04T05:50:19.050Z,4.50
2022-10-04T05:50:50.830Z,4.50
2022-10-04T05:51:22.520Z,4.50
2022-10-04T05:51:55.163Z,4.50
2022-10-04T05:52:26.671Z,4.50
2022-10-04T05:52:58.653Z,4.50
2022-10-04T05:53:30.645Z,4.50
2022-10-04T05:54:03.374Z,4.50
2022-10-04T05:54:34.818Z,4.38
2022-10-04T05:55:07.048Z,4.38
2022-10-04T05:55:38.518Z,4.38
2022-10-04T05:56:10.424Z,4.50
2022-10-04T05:56:42.514Z,4.50
2022-10-04T05:57:14.994Z,4.50
2022-10-04T05:57:46.634Z,4.50
2022-10-04T05:58:03.000Z,4.50
2022-10-04T05:58:46.726Z,4.50
2022-10-04T05:59:18.356Z,4.50
2022-10-04T05:59:50.479Z,4.50
2022-10-04T06:00:22.844Z,4.50
2022-10-04T06:00:54.731Z,4.50
2022-10-04T06:01:26.382Z,4.61
2022-10-04T06:01:58.441Z,4.61
2022-10-04T06:02:30.416Z,4.61
2022-10-04T06:03:02.909Z,4.61
2022-10-04T06:03:34.604Z,4.61
2022-10-04T06:04:06.533Z,4.61
2022-10-04T06:04:38.028Z,4.61
2022-10-04T06:05:10.364Z,4.61
2022-10-04T06:05:42.328Z,4.61
2022-10-04T06:06:14.581Z,4.61
2022-10-04T06:06:46.425Z,4.72
2022-10-04T06:07:02.394Z,4.72
2022-10-04T06:07:34.451Z,4.72
2022-10-04T06:08:18.114Z,4.72
2022-10-04T06:08:49.796Z,4.72
2022-10-04T06:09:21.977Z,4.72
2022-10-04T06:09:54.381Z,4.72
2022-10-04T06:10:26.300Z,4.72
2022-10-04T06:10:57.844Z,4.72
2022-10-04T06:11:29.861Z,4.72
2022-10-04T06:11:46.586Z,4.72
2022-10-04T06:12:29.972Z,4.72
2022-10-04T06:13:01.995Z,4.72
2022-10-04T06:13:33.825Z,4.72
2022-10-04T06:14:06.243Z,4.72
2022-10-04T06:14:37.725Z,4.77
2022-10-04T06:15:10.921Z,4.77
2022-10-04T06:15:41.684Z,4.72
2022-10-04T06:16:13.914Z,4.72
2022-10-04T06:16:46.233Z,4.72
2022-10-04T06:17:17.728Z,4.72
2022-10-04T06:17:49.592Z,4.72
2022-10-04T06:18:21.776Z,4.72
2022-10-04T06:18:54.108Z,4.72
2022-10-04T06:19:26.210Z,4.77
2022-10-04T06:19:57.466Z,4.77
2022-10-04T06:20:29.940Z,4.77
2022-10-04T06:20:46.144Z,4.77
2022-10-04T06:21:17.405Z,4.77
2022-10-04T06:21:33.715Z,4.77
2022-10-04T06:22:05.996Z,4.77
2022-10-04T06:22:37.361Z,4.88
2022-10-04T06:23:09.547Z,4.88
2022-10-04T06:23:41.586Z,4.88
2022-10-04T06:24:13.330Z,4.88
2022-10-04T06:24:45.997Z,4.88
2022-10-04T06:25:01.832Z,4.88
2022-10-04T06:25:33.348Z,5.00
2022-10-04T06:26:17.248Z,5.00
2022-10-04T06:26:49.232Z,5.00
2022-10-04T06:27:21.362Z,5.00
2022-10-04T06:27:53.168Z,5.00
2022-10-04T06:28:25.810Z,5.00
2022-10-04T06:28:57.037Z,5.11
2022-10-04T06:29:29.068Z,5.22
2022-10-04T06:29:45.651Z,5.22
2022-10-04T06:30:33.517Z,5.22
2022-10-04T06:31:01.331Z,5.22
2022-10-04T06:31:33.064Z,5.22
2022-10-04T06:32:05.656Z,5.22
2022-10-04T06:32:36.946Z,5.11
2022-10-04T06:33:09.171Z,5.11
2022-10-04T06:33:40.927Z,5.11
2022-10-04T06:34:12.897Z,5.11
2022-10-04T06:34:45.527Z,5.11
2022-10-04T06:35:17.162Z,5.11
2022-10-04T06:35:48.907Z,5.11
2022-10-04T06:36:20.883Z,5.11
2022-10-04T06:36:52.913Z,5.22
2022-10-04T06:37:25.364Z,5.22
2022-10-04T06:37:56.728Z,5.22
2022-10-04T06:38:28.826Z,5.22
2022-10-04T06:38:45.389Z,5.22
2022-10-04T06:39:16.842Z,5.22
2022-10-04T06:39:32.970Z,5.22
2022-10-04T06:40:05.840Z,5.22
2022-10-04T06:40:36.630Z,5.22
2022-10-04T06:41:08.841Z,5.22
2022-10-04T06:41:41.209Z,5.22
2022-10-04T06:42:12.815Z,5.22
2022-10-04T06:42:45.257Z,5.22
2022-10-04T06:43:00.873Z,5.22
2022-10-04T06:43:32.435Z,5.22
2022-10-04T06:44:16.589Z,5.22
2022-10-04T06:44:48.435Z,5.22
2022-10-04T06:45:20.798Z,5.22
2022-10-04T06:45:52.569Z,5.22
2022-10-04T06:46:24.999Z,5.27
2022-10-04T06:46:56.467Z,5.38
2022-10-04T06:47:28.345Z,5.38
2022-10-04T06:47:44.775Z,5.38
2022-10-04T06:48:28.339Z,5.38
2022-10-04T06:49:00.454Z,5.38
2022-10-04T06:49:32.146Z,5.38
2022-10-04T06:50:05.438Z,5.50
2022-10-04T06:50:36.275Z,5.50
2022-10-04T06:51:08.214Z,5.61
2022-10-04T06:51:40.437Z,5.61
2022-10-04T06:52:16.719Z,5.61
2022-10-04T06:52:44.635Z,5.61
2022-10-04T06:53:16.213Z,5.61
2022-10-04T06:53:48.001Z,5.61
2022-10-04T06:54:20.097Z,5.61
2022-10-04T06:54:52.256Z,5.61
2022-10-04T06:55:24.974Z,5.61
2022-10-04T06:55:56.388Z,5.61
2022-10-04T06:56:27.885Z,5.61